createdAt,value
2022-07-27T00:04:32.401Z,98440.44
2022-07-27T00:09:37.725Z,98440.41
2022-07-27T00:20:36.280Z,98435.28
2022-07-27T00:25:41.370Z,98428.81
2022-07-27T00:30:46.450Z,98430.25
2022-07-27T00:35:54.062Z,98419.78
2022-07-27T00:40:59.425Z,98404.13
2022-07-27T00:46:04.530Z,98407.44
2022-07-27T00:51:14.067Z,98406.81
2022-07-27T00:56:19.424Z,98408.44
2022-07-27T01:01:24.381Z,98410.97
2022-07-27T01:06:32.098Z,98418.72
2022-07-27T01:11:37.011Z,98417.63
2022-07-27T01:16:42.255Z,98429.69
2022-07-27T01:21:49.859Z,98428.84
2022-07-27T01:26:54.861Z,98412.88
2022-07-27T01:32:00.443Z,98409.53
2022-07-27T01:37:08.815Z,98415.41
2022-07-27T01:42:16.567Z,98419.13
2022-07-27T01:47:21.675Z,98420.75
2022-07-27T01:52:29.082Z,98419.25
2022-07-27T01:57:34.050Z,98422.78
2022-07-27T02:02:39.050Z,98411.91
2022-07-27T02:07:46.582Z,98411.81
2022-07-27T02:12:51.410Z,98412.19
2022-07-27T02:17:57.187Z,98418.78
2022-07-27T02:23:05.125Z,98422.16
2022-07-27T02:28:10.159Z,98404.38
2022-07-27T02:33:15.304Z,98414.91
2022-07-27T02:38:24.002Z,98416.38
2022-07-27T02:43:28.846Z,98414.00
2022-07-27T02:48:34.869Z,98410.63
2022-07-27T02:53:42.430Z,98411.59
2022-07-27T02:58:47.373Z,98412.47
2022-07-27T03:03:52.350Z,98419.22
2022-07-27T03:08:59.936Z,98415.41
2022-07-27T03:14:05.026Z,98410.75
2022-07-27T03:19:10.292Z,98415.09
2022-07-27T03:24:17.998Z,98396.09
2022-07-27T03:29:22.993Z,98397.50
2022-07-27T03:34:28.088Z,98408.19
2022-07-27T03:39:35.712Z,98421.78
2022-07-27T03:44:40.623Z,98425.44
2022-07-27T03:49:45.659Z,98421.59
2022-07-27T03:54:53.102Z,98431.53
2022-07-27T03:59:58.081Z,98425.25
2022-07-27T04:05:03.244Z,98436.88
2022-07-27T04:10:12.487Z,98436.50
2022-07-27T04:15:19.546Z,98437.72
2022-07-27T04:20:24.405Z,98450.44
2022-07-27T04:25:32.855Z,98454.44
2022-07-27T04:30:37.912Z,98448.66
2022-07-27T04:35:42.913Z,98439.28
2022-07-27T04:40:52.765Z,98450.59
2022-07-27T04:46:01.345Z,98453.97
2022-07-27T04:51:06.385Z,98444.00
2022-07-27T04:56:14.994Z,98446.97
2022-07-27T05:01:23.810Z,98463.06
2022-07-27T05:06:28.746Z,98466.91
2022-07-27T05:11:36.264Z,98468.19
2022-07-27T05:16:43.080Z,98478.00
2022-07-27T05:21:48.002Z,98481.75
2022-07-27T05:26:55.938Z,98474.47
2022-07-27T05:32:00.945Z,98468.00
2022-07-27T05:37:05.999Z,98486.44
2022-07-27T05:42:14.355Z,98504.41
2022-07-27T05:47:19.394Z,98504.41
2022-07-27T05:52:24.261Z,98514.22
2022-07-27T05:57:31.769Z,98514.22
2022-07-27T06:02:37.334Z,98528.25
2022-07-27T06:07:54.676Z,98517.66
2022-07-27T06:13:02.913Z,98526.09
2022-07-27T06:18:13.899Z,98530.66
2022-07-27T06:23:18.846Z,98528.69
2022-07-27T06:28:26.906Z,98525.22
2022-07-27T06:33:31.938Z,98525.31
2022-07-27T06:38:37.853Z,98538.41
2022-07-27T06:43:45.429Z,98537.63
2022-07-27T06:48:50.344Z,98537.56
2022-07-27T06:53:55.952Z,98546.81
2022-07-27T06:59:03.567Z,98542.53
2022-07-27T07:04:08.778Z,98540.91
2022-07-27T07:09:14.470Z,98535.69
2022-07-27T07:14:22.791Z,98533.94
2022-07-27T07:19:27.843Z,98537.28
2022-07-27T07:24:34.039Z,98544.81
2022-07-27T07:29:41.556Z,98547.13
2022-07-27T07:34:46.508Z,98541.53
2022-07-27T07:39:51.388Z,98545.56
2022-07-27T07:44:59.206Z,98551.53
2022-07-27T07:50:04.128Z,98547.19
2022-07-27T07:55:10.695Z,98551.91
2022-07-27T08:00:20.167Z,98549.94
2022-07-27T08:05:25.954Z,98542.47
2022-07-27T08:10:30.987Z,98546.53
2022-07-27T08:15:38.959Z,98557.00
2022-07-27T08:20:44.260Z,98558.19
2022-07-27T08:25:54.621Z,98554.69
2022-07-27T08:31:02.715Z,98573.31
2022-07-27T08:36:20.541Z,98578.03
2022-07-27T08:41:30.093Z,98578.72
2022-07-27T08:46:40.887Z,98587.38
2022-07-27T08:51:47.681Z,98574.41
2022-07-27T08:56:52.935Z,98571.66
2022-07-27T09:02:03.164Z,98579.28
2022-07-27T09:07:08.616Z,98567.22
2022-07-27T09:12:14.073Z,98561.88
2022-07-27T09:17:48.670Z,98561.72
2022-07-27T09:22:56.451Z,98552.59
2022-07-27T09:28:02.339Z,98560.72
2022-07-27T09:33:10.758Z,98553.19
2022-07-27T09:38:22.593Z,98549.84
2022-07-27T09:44:27.644Z,98550.91
2022-07-27T09:48:56.472Z,98542.91
2022-07-27T09:54:09.165Z,98545.22
2022-07-27T09:59:21.911Z,98548.16
2022-07-27T10:04:29.671Z,98543.88
2022-07-27T10:09:35.133Z,98542.69
2022-07-27T10:14:40.818Z,98546.66
2022-07-27T10:19:51.156Z,98551.09
2022-07-27T10:25:02.522Z,98544.91
2022-07-27T10:30:09.562Z,98546.34
2022-07-27T10:35:38.668Z,98549.66
2022-07-27T10:40:44.663Z,98557.00
2022-07-27T10:46:01.726Z,98556.88
2022-07-27T10:51:12.949Z,98552.50
2022-07-27T10:56:48.203Z,98552.91
2022-07-27T11:01:59.673Z,98557.94
2022-07-27T11:12:33.387Z,98547.19
2022-07-27T11:28:46.653Z,98548.34
2022-07-27T11:34:00.315Z,98544.09
2022-07-27T11:39:14.546Z,98536.31
2022-07-27T11:44:20.063Z,98538.50
2022-07-27T11:49:28.955Z,98524.44
2022-07-27T11:54:38.479Z,98537.75
2022-07-27T11:59:45.125Z,98539.63
2022-07-27T12:04:51.431Z,98543.88
2022-07-27T12:10:02.297Z,98535.09
2022-07-27T12:20:43.000Z,98530.78
2022-07-27T12:25:50.651Z,98527.56
2022-07-27T12:30:55.898Z,98518.09
2022-07-27T12:36:02.735Z,98528.91
2022-07-27T12:41:11.077Z,98516.16
2022-07-27T12:46:17.290Z,98505.59
2022-07-27T12:56:32.506Z,98495.44
2022-07-27T13:01:37.506Z,98497.69
2022-07-27T13:06:42.682Z,98495.72
2022-07-27T13:11:50.611Z,98495.00
2022-07-27T13:16:55.764Z,98500.81
2022-07-27T13:22:01.448Z,98504.88
2022-07-27T13:27:09.237Z,98506.47
2022-07-27T13:32:14.496Z,98506.44
2022-07-27T13:37:23.577Z,98504.47
2022-07-27T13:42:31.414Z,98514.28
2022-07-27T13:47:36.353Z,98507.47
2022-07-27T13:52:41.309Z,98507.06
2022-07-27T13:57:50.017Z,98505.72
2022-07-27T14:02:55.020Z,98497.50
2022-07-27T14:08:00.084Z,98502.19
2022-07-27T14:13:11.672Z,98494.16
2022-07-27T14:18:16.542Z,98492.09
2022-07-27T14:23:21.780Z,98491.13
2022-07-27T14:28:30.652Z,98486.06
2022-07-27T14:33:36.493Z,98494.19
2022-07-27T14:38:44.622Z,98487.28
2022-07-27T14:43:52.224Z,98481.56
2022-07-27T14:49:06.177Z,98485.97
2022-07-27T14:54:11.805Z,98483.09
2022-07-27T14:59:19.642Z,98480.69
2022-07-27T15:04:24.642Z,98477.88
2022-07-27T15:09:30.684Z,98476.28
2022-07-27T15:14:39.890Z,98481.91
2022-07-27T15:19:44.894Z,98477.28
2022-07-27T15:24:49.896Z,98473.56
2022-07-27T15:29:57.834Z,98479.78
2022-07-27T15:35:02.775Z,98475.59
2022-07-27T15:40:21.855Z,98471.06
2022-07-27T15:45:29.581Z,98468.00
2022-07-27T15:50:34.669Z,98464.50
2022-07-27T15:55:40.652Z,98462.47
2022-07-27T16:00:49.657Z,98451.16
2022-07-27T16:05:55.009Z,98451.75
2022-07-27T16:11:00.795Z,98437.81
2022-07-27T16:16:21.217Z,98442.19
2022-07-27T16:21:27.740Z,98429.78
2022-07-27T16:26:32.927Z,98418.91
2022-07-27T16:31:40.407Z,98419.44
2022-07-27T16:36:45.586Z,98415.56
2022-07-27T16:41:51.848Z,98418.19
2022-07-27T16:46:59.490Z,98415.06
2022-07-27T16:52:04.571Z,98412.31
2022-07-27T16:57:10.984Z,98418.47
2022-07-27T17:02:19.403Z,98414.88
2022-07-27T17:07:24.620Z,98422.09
2022-07-27T17:12:30.852Z,98417.41
2022-07-27T17:17:41.419Z,98419.09
2022-07-27T17:22:46.423Z,98424.75
2022-07-27T17:27:52.774Z,98425.13
2022-07-27T17:33:00.344Z,98425.66
2022-07-27T17:38:07.302Z,98423.91
2022-07-27T17:43:13.430Z,98439.06
2022-07-27T17:48:23.666Z,98445.38
2022-07-27T17:53:29.396Z,98446.25
2022-07-27T17:58:34.273Z,98446.56
2022-07-27T18:03:42.513Z,98446.75
2022-07-27T18:08:47.843Z,98447.41
2022-07-27T18:13:52.790Z,98454.78
2022-07-27T18:19:01.356Z,98454.13
2022-07-27T18:24:10.416Z,98453.63
2022-07-27T18:29:16.403Z,98453.03
2022-07-27T18:34:24.441Z,98450.09
2022-07-27T18:39:33.952Z,98451.81
2022-07-27T18:44:39.444Z,98461.13
2022-07-27T18:49:46.943Z,98458.41
2022-07-27T18:54:52.728Z,98451.97
2022-07-27T18:59:58.103Z,98449.69
2022-07-27T19:05:05.928Z,98460.31
2022-07-27T19:10:12.965Z,98465.19
2022-07-27T19:15:18.425Z,98471.16
2022-07-27T19:20:26.003Z,98482.94
2022-07-27T19:25:33.941Z,98488.56
2022-07-27T19:30:39.270Z,98492.09
2022-07-27T19:35:46.979Z,98490.31
2022-07-27T19:40:52.223Z,98505.72
2022-07-27T19:45:57.305Z,98500.28
2022-07-27T19:51:07.045Z,98507.66
2022-07-27T19:56:12.370Z,98504.72
2022-07-27T20:01:17.810Z,98507.91
2022-07-27T20:06:25.632Z,98515.03
2022-07-27T20:11:31.991Z,98524.03
2022-07-27T20:16:38.944Z,98537.69
2022-07-27T20:21:46.589Z,98535.13
2022-07-27T20:26:51.583Z,98542.59
2022-07-27T20:31:56.699Z,98547.38
2022-07-27T20:37:04.198Z,98559.25
2022-07-27T20:42:09.293Z,98563.97
2022-07-27T20:47:14.850Z,98554.88
2022-07-27T20:52:22.557Z,98559.66
2022-07-27T20:57:28.625Z,98566.47
2022-07-27T21:02:33.821Z,98560.97
2022-07-27T21:07:41.351Z,98563.41
2022-07-27T21:12:47.204Z,98570.41
2022-07-27T21:17:52.657Z,98572.75
2022-07-27T21:23:15.130Z,98573.78
2022-07-27T21:28:24.788Z,98580.28
2022-07-27T21:33:30.090Z,98588.63
2022-07-27T21:38:37.657Z,98590.97
2022-07-27T21:43:42.771Z,98591.56
2022-07-27T21:48:48.817Z,98588.78
2022-07-27T21:53:56.980Z,98597.63
2022-07-27T21:59:02.025Z,98600.47
2022-07-27T22:04:07.253Z,98605.63
2022-07-27T22:09:14.885Z,98604.53
2022-07-27T22:14:19.943Z,98604.06
2022-07-27T22:19:24.970Z,98617.13
2022-07-27T22:24:32.589Z,98617.56
2022-07-27T22:29:37.561Z,98627.59
2022-07-27T22:34:42.505Z,98625.75
2022-07-27T22:39:50.466Z,98638.56
2022-07-27T22:44:55.749Z,98633.25
2022-07-27T22:50:01.032Z,98639.03
2022-07-27T22:55:09.746Z,98637.50
2022-07-27T23:00:16.120Z,98637.16
2022-07-27T23:05:21.556Z,98639.09
2022-07-27T23:10:41.663Z,98646.44
2022-07-27T23:15:47.993Z,98649.75
2022-07-27T23:20:53.056Z,98642.03
2022-07-27T23:26:00.448Z,98645.16
2022-07-27T23:31:06.116Z,98639.31
2022-07-27T23:36:12.287Z,98633.09
2022-07-27T23:41:19.907Z,98626.72
2022-07-27T23:46:25.006Z,98628.13
2022-07-27T23:51:30.120Z,98633.25
2022-07-27T23:56:37.681Z,98631.63
